Time;durP1;ratioP1;P1;durP2;ratioP2;P2;SDS_P1;SDS_P2;PMS_P1;PMS_P2;Temp;Humidity;BMP_temperature;BMP_pressure;BME280_temperature;BME280_humidity;BME280_pressure;Samples;Min_cycle;Max_cycle;Signal;HPM_P1;HPM_P2
2022/10/25 00:00:10;;;;;;;18.83;7.95;;;12.00;99.90;;;;;;4840306;29;20073;-83
2022/10/25 00:02:35;;;;;;;28.15;8.07;;;12.10;99.90;;;;;;4854525;29;20864;-83
2022/10/25 00:05:02;;;;;;;19.88;8.10;;;11.90;99.90;;;;;;4839502;29;20125;-83
2022/10/25 00:07:28;;;;;;;27.75;8.52;;;12.00;99.90;;;;;;4840052;29;20136;-83
2022/10/25 00:09:53;;;;;;;22.65;7.97;;;11.80;99.90;;;;;;4854931;29;20144;-84
2022/10/25 00:12:19;;;;;;;28.38;8.50;;;11.90;99.90;;;;;;4870385;29;20108;-83
2022/10/25 00:14:45;;;;;;;29.73;9.25;;;12.00;99.90;;;;;;4824855;29;20125;-83
2022/10/25 00:17:10;;;;;;;23.25;9.18;;;12.10;99.90;;;;;;4871073;29;20553;-83
2022/10/25 00:19:36;;;;;;;30.23;9.40;;;12.00;99.90;;;;;;4838778;29;20447;-83
2022/10/25 00:22:02;;;;;;;22.40;9.43;;;11.90;99.90;;;;;;4854917;29;20056;-83
2022/10/25 00:24:27;;;;;;;22.50;10.25;;;11.90;99.90;;;;;;4840133;29;20447;-84
2022/10/25 00:26:53;;;;;;;25.33;10.10;;;11.90;99.90;;;;;;4854581;29;20121;-84
2022/10/25 00:29:19;;;;;;;24.77;10.55;;;12.60;99.90;;;;;;4839769;29;20513;-83
2022/10/25 00:31:44;;;;;;;27.75;10.57;;;11.80;99.90;;;;;;4840120;29;20061;-83
2022/10/25 00:34:10;;;;;;;29.20;10.68;;;12.00;99.90;;;;;;4838170;29;20085;-83
2022/10/25 00:36:36;;;;;;;33.03;10.90;;;12.20;99.90;;;;;;4840177;29;20049;-83
2022/10/25 00:39:02;;;;;;;24.08;10.38;;;11.80;99.90;;;;;;4839270;29;20144;-84
2022/10/25 00:41:30;;;;;;;29.65;11.35;;;12.00;99.90;;;;;;4870157;29;20045;-83
2022/10/25 00:44:34;;;;;;;30.25;12.10;;;12.00;99.90;;;;;;4854774;29;20695;-83
2022/10/25 00:47:09;;;;;;;26.95;11.68;;;12.00;99.90;;;;;;4853921;29;20064;-83
2022/10/25 00:49:35;;;;;;;31.65;11.77;;;11.90;99.90;;;;;;4854345;29;20136;-84
2022/10/25 00:52:05;;;;;;;25.52;12.18;;;11.90;99.90;;;;;;4839484;29;20185;-84
2022/10/25 00:54:36;;;;;;;37.05;12.57;;;12.10;99.90;;;;;;4854359;29;20041;-84
2022/10/25 00:57:13;;;;;;;37.22;12.80;;;12.00;99.90;;;;;;4824432;29;20053;-84
2022/10/25 00:59:41;;;;;;;29.42;12.55;;;12.00;99.90;;;;;;4839494;29;20057;-84
2022/10/25 01:02:07;;;;;;;33.28;13.55;;;12.10;99.90;;;;;;4838593;29;20570;-84
2022/10/25 01:04:33;;;;;;;29.33;13.23;;;12.10;99.90;;;;;;4854272;29;20090;-83
2022/10/25 01:07:00;;;;;;;38.63;13.52;;;12.00;99.90;;;;;;4838930;29;20061;-84
2022/10/25 01:09:30;;;;;;;39.63;14.05;;;12.10;99.90;;;;;;4823626;29;20049;-83
2022/10/25 01:11:56;;;;;;;40.40;14.50;;;12.20;99.90;;;;;;4854335;29;20085;-83
2022/10/25 01:14:22;;;;;;;31.77;14.38;;;12.10;99.90;;;;;;4839231;29;20369;-83
2022/10/25 01:17:06;;;;;;;35.67;14.82;;;12.40;99.90;;;;;;4838747;29;20093;-83
2022/10/25 01:19:35;;;;;;;35.97;14.43;;;12.20;99.90;;;;;;4854173;29;20053;-83
2022/10/25 01:22:11;;;;;;;38.45;14.95;;;12.30;99.90;;;;;;4838576;29;20046;-83
2022/10/25 01:24:57;;;;;;;36.58;15.48;;;12.20;99.90;;;;;;4839155;29;20403;-84
2022/10/25 01:27:33;;;;;;;40.47;15.98;;;12.40;99.90;;;;;;4839514;29;20133;-82
2022/10/25 01:30:14;;;;;;;32.80;14.93;;;12.40;99.90;;;;;;4841526;29;20463;-83
2022/10/25 01:32:43;;;;;;;34.75;14.52;;;12.40;99.90;;;;;;4841674;29;20053;-84
2022/10/25 01:35:28;;;;;;;36.47;16.00;;;12.30;99.90;;;;;;4843143;29;20079;-83
2022/10/25 01:38:16;;;;;;;33.65;15.20;;;12.40;99.90;;;;;;4826617;29;20060;-83
2022/10/25 01:40:52;;;;;;;39.80;15.32;;;12.40;99.90;;;;;;4827731;29;20045;-83
2022/10/25 01:43:34;;;;;;;36.40;15.48;;;12.50;99.90;;;;;;4827256;29;20049;-84
2022/10/25 01:46:03;;;;;;;33.72;15.30;;;12.40;99.90;;;;;;4858688;29;20098;-83
2022/10/25 01:48:35;;;;;;;33.25;15.70;;;12.40;99.90;;;;;;4841790;29;20053;-83
2022/10/25 01:51:09;;;;;;;36.28;15.52;;;12.40;99.90;;;;;;4842363;29;20105;-83
2022/10/25 01:53:43;;;;;;;31.45;14.52;;;12.50;99.90;;;;;;4873572;29;20053;-83
2022/10/25 01:56:10;;;;;;;34.00;15.27;;;12.40;99.90;;;;;;4842847;29;20491;-83
2022/10/25 01:58:48;;;;;;;35.92;14.63;;;12.50;99.90;;;;;;4857390;29;20460;-83
2022/10/25 02:01:29;;;;;;;30.70;13.40;;;12.30;99.90;;;;;;4858155;29;20076;-83
2022/10/25 02:04:04;;;;;;;32.95;13.02;;;12.50;99.90;;;;;;4856377;29;20090;-82
2022/10/25 02:06:52;;;;;;;36.65;13.63;;;12.60;99.90;;;;;;4842927;29;20044;-83
2022/10/25 02:09:29;;;;;;;28.65;12.85;;;12.40;99.90;;;;;;4857991;29;20190;-83
2022/10/25 02:11:58;;;;;;;31.73;12.40;;;12.40;99.90;;;;;;4857129;29;20443;-83
2022/10/25 02:14:34;;;;;;;31.15;12.52;;;12.50;99.90;;;;;;4842610;29;20057;-83
2022/10/25 02:17:04;;;;;;;26.73;12.75;;;12.40;99.90;;;;;;4842366;29;20428;-83
2022/10/25 02:19:35;;;;;;;26.85;12.15;;;12.40;99.90;;;;;;4825435;29;20057;-83
2022/10/25 02:22:03;;;;;;;26.98;11.80;;;12.30;99.90;;;;;;4845099;29;20478;-83
2022/10/25 02:24:30;;;;;;;26.63;12.85;;;12.50;99.90;;;;;;4876007;29;20048;-84
2022/10/25 02:26:58;;;;;;;32.05;13.05;;;12.50;99.90;;;;;;4860257;29;20045;-83
2022/10/25 02:29:27;;;;;;;31.02;12.63;;;12.30;99.90;;;;;;4875584;29;20045;-83
2022/10/25 02:31:53;;;;;;;23.00;12.52;;;12.70;99.90;;;;;;4876297;29;20063;-84
2022/10/25 02:34:18;;;;;;;25.33;11.57;;;12.50;99.90;;;;;;4874506;29;20435;-83
2022/10/25 02:36:49;;;;;;;29.65;12.77;;;12.50;99.90;;;;;;4876127;29;20153;-83
2022/10/25 02:39:15;;;;;;;26.73;12.50;;;12.40;99.90;;;;;;4858906;29;20064;-83
2022/10/25 02:41:41;;;;;;;24.65;11.68;;;12.60;99.90;;;;;;4844833;29;20053;-83
2022/10/25 02:44:07;;;;;;;27.45;11.77;;;12.50;99.90;;;;;;4875680;29;20061;-83
2022/10/25 02:46:32;;;;;;;29.48;12.80;;;12.60;99.90;;;;;;4874786;29;20048;-83
2022/10/25 02:48:58;;;;;;;24.08;12.35;;;12.50;99.90;;;;;;4874600;29;20699;-83
2022/10/25 02:51:24;;;;;;;25.98;12.48;;;12.70;99.90;;;;;;4875670;29;20037;-84
2022/10/25 02:53:49;;;;;;;30.00;13.32;;;12.60;99.90;;;;;;4856406;29;20545;-83
2022/10/25 02:56:19;;;;;;;26.85;12.93;;;12.60;99.90;;;;;;4857202;29;20049;-83
2022/10/25 02:58:45;;;;;;;27.00;12.70;;;12.60;99.90;;;;;;4856389;29;20054;-83
2022/10/25 03:01:12;;;;;;;26.38;12.65;;;12.90;99.90;;;;;;4856133;29;20502;-84
2022/10/25 03:03:38;;;;;;;26.98;12.82;;;12.70;99.90;;;;;;4855553;29;20395;-84
2022/10/25 03:06:05;;;;;;;33.63;13.88;;;12.80;99.90;;;;;;4856803;29;20136;-83
2022/10/25 03:08:32;;;;;;;32.63;13.75;;;12.60;99.90;;;;;;4840170;29;20056;-84
2022/10/25 03:10:57;;;;;;;26.42;12.70;;;12.60;99.90;;;;;;4856609;29;20052;-83
2022/10/25 03:13:23;;;;;;;27.17;12.82;;;12.80;99.90;;;;;;4863793;29;20049;-83
2022/10/25 03:15:49;;;;;;;23.73;13.07;;;12.60;99.90;;;;;;4873911;29;20049;-84
2022/10/25 03:18:14;;;;;;;26.73;12.20;;;12.60;99.90;;;;;;4874330;29;20159;-83
2022/10/25 03:20:41;;;;;;;25.35;11.93;;;12.70;99.90;;;;;;4844018;29;20093;-83
2022/10/25 03:23:07;;;;;;;28.15;12.18;;;12.70;99.90;;;;;;4858574;29;20076;-83
2022/10/25 03:25:32;;;;;;;20.70;11.27;;;12.60;99.90;;;;;;4875212;29;20061;-83
2022/10/25 03:27:59;;;;;;;28.00;12.02;;;12.60;99.90;;;;;;4843497;29;20084;-83
2022/10/25 03:30:26;;;;;;;26.42;11.63;;;12.70;99.90;;;;;;4874363;29;20053;-84
2022/10/25 03:32:52;;;;;;;29.67;11.05;;;12.50;99.90;;;;;;4873231;29;20382;-84
2022/10/25 03:35:17;;;;;;;31.30;11.25;;;12.60;99.90;;;;;;4874762;29;20082;-83
2022/10/25 03:37:43;;;;;;;22.98;11.68;;;12.50;99.90;;;;;;4858537;29;20087;-83
2022/10/25 03:40:09;;;;;;;29.88;10.50;;;12.60;99.90;;;;;;4874809;29;20114;-83
2022/10/25 03:42:35;;;;;;;21.40;10.88;;;12.40;99.90;;;;;;4859281;29;20052;-83
2022/10/25 03:45:00;;;;;;;23.40;10.48;;;12.50;99.90;;;;;;4855511;29;20045;-84
2022/10/25 03:47:27;;;;;;;30.95;11.10;;;12.40;99.90;;;;;;4840177;29;20058;-83
2022/10/25 03:49:53;;;;;;;21.90;10.90;;;12.40;99.90;;;;;;4824709;29;20081;-84
2022/10/25 03:52:18;;;;;;;18.42;8.95;;;12.50;99.90;;;;;;4854799;29;20141;-83
2022/10/25 03:54:44;;;;;;;26.95;10.60;;;12.50;99.90;;;;;;4840512;29;20132;-83
2022/10/25 03:57:10;;;;;;;25.38;9.63;;;12.50;99.90;;;;;;4839669;29;20098;-83
2022/10/25 03:59:35;;;;;;;28.48;9.73;;;12.50;99.90;;;;;;4855764;29;20105;-84
2022/10/25 04:02:01;;;;;;;23.63;10.05;;;12.50;99.90;;;;;;4855661;29;20049;-83
2022/10/25 04:04:26;;;;;;;24.90;10.95;;;12.50;99.90;;;;;;4853968;29;20053;-83
2022/10/25 04:06:52;;;;;;;25.50;10.90;;;12.40;99.90;;;;;;4855727;29;20053;-84
2022/10/25 04:09:18;;;;;;;28.42;10.40;;;12.40;99.90;;;;;;4855255;29;20053;-84
2022/10/25 04:11:44;;;;;;;26.67;11.45;;;12.50;99.90;;;;;;4839629;29;20132;-84
2022/10/25 04:14:09;;;;;;;30.58;11.65;;;12.60;99.90;;;;;;4825658;29;20056;-83
2022/10/25 04:16:35;;;;;;;34.25;11.90;;;12.40;99.90;;;;;;4855859;29;20102;-83
2022/10/25 04:19:01;;;;;;;31.33;13.38;;;12.60;99.90;;;;;;4836368;29;20140;-83
2022/10/25 04:21:27;;;;;;;32.97;12.95;;;12.40;99.90;;;;;;4855466;29;20094;-83
2022/10/25 04:23:52;;;;;;;34.70;13.65;;;12.40;99.90;;;;;;4860162;29;20148;-83
2022/10/25 04:26:19;;;;;;;36.55;13.25;;;12.30;99.90;;;;;;4842753;29;20075;-83
2022/10/25 04:28:50;;;;;;;30.92;13.35;;;12.50;99.90;;;;;;4857592;29;20080;-83
2022/10/25 04:31:16;;;;;;;33.97;13.73;;;12.30;99.90;;;;;;4869118;29;20053;-83
2022/10/25 04:33:41;;;;;;;33.72;12.32;;;12.40;99.90;;;;;;4822670;29;20060;-85
2022/10/25 04:36:07;;;;;;;35.55;12.88;;;12.40;99.90;;;;;;4855486;29;20048;-83
2022/10/25 04:38:33;;;;;;;43.80;14.50;;;12.30;99.90;;;;;;4838737;29;20052;-84
2022/10/25 04:41:00;;;;;;;37.97;12.88;;;12.30;99.90;;;;;;4839370;29;20057;-84
2022/10/25 04:43:27;;;;;;;34.88;12.45;;;12.20;99.90;;;;;;4840074;29;20054;-84
2022/10/25 04:45:53;;;;;;;37.75;14.15;;;12.30;99.90;;;;;;4823684;29;20110;-84
2022/10/25 04:48:19;;;;;;;38.10;14.57;;;12.40;99.90;;;;;;4824288;29;20049;-84
2022/10/25 04:50:45;;;;;;;33.58;13.57;;;12.40;99.90;;;;;;4839302;29;20048;-83
2022/10/25 04:53:11;;;;;;;40.20;13.40;;;12.20;99.90;;;;;;4838970;29;20411;-84
2022/10/25 04:55:37;;;;;;;29.65;12.38;;;12.20;99.90;;;;;;4855377;29;20068;-84
2022/10/25 04:58:03;;;;;;;35.22;13.20;;;12.40;99.90;;;;;;4838976;29;20049;-84
2022/10/25 05:00:29;;;;;;;32.95;13.25;;;12.20;99.90;;;;;;4824091;29;20148;-84
2022/10/25 05:02:54;;;;;;;44.83;15.50;;;12.20;99.90;;;;;;4853585;29;20631;-83
2022/10/25 05:05:22;;;;;;;32.50;13.50;;;12.40;99.90;;;;;;4839960;29;20061;-84
2022/10/25 05:07:48;;;;;;;39.53;15.70;;;12.10;99.90;;;;;;4823401;29;20439;-83
2022/10/25 05:10:15;;;;;;;39.38;14.27;;;12.30;99.90;;;;;;4839651;29;20490;-84
2022/10/25 05:12:40;;;;;;;34.17;14.18;;;12.20;99.90;;;;;;4839219;29;20129;-84
2022/10/25 05:15:08;;;;;;;38.95;14.40;;;12.20;99.90;;;;;;4838662;29;20140;-84
2022/10/25 05:17:33;;;;;;;38.45;15.07;;;12.10;99.90;;;;;;4854074;29;20057;-84
2022/10/25 05:19:59;;;;;;;32.78;14.48;;;12.40;99.90;;;;;;4841891;29;20036;-86
2022/10/25 05:22:25;;;;;;;38.15;14.27;;;12.20;99.90;;;;;;4872822;29;20402;-84
2022/10/25 05:24:50;;;;;;;41.10;14.63;;;12.30;99.90;;;;;;4842459;29;20049;-83
2022/10/25 05:27:17;;;;;;;39.33;13.40;;;12.40;99.90;;;;;;4857406;29;20045;-83
2022/10/25 05:29:42;;;;;;;38.72;13.15;;;12.40;99.90;;;;;;4857125;29;20550;-83
2022/10/25 05:32:08;;;;;;;39.92;12.77;;;12.20;99.90;;;;;;4873131;29;20037;-83
2022/10/25 05:34:34;;;;;;;39.38;13.20;;;12.40;99.90;;;;;;4842022;29;20132;-84
2022/10/25 05:36:59;;;;;;;39.55;13.13;;;12.40;99.90;;;;;;4856958;29;20443;-83
2022/10/25 05:39:25;;;;;;;36.80;14.20;;;12.60;99.90;;;;;;4857730;29;20104;-83
2022/10/25 05:41:51;;;;;;;40.20;14.05;;;12.30;99.90;;;;;;4873482;29;20069;-83
2022/10/25 05:44:17;;;;;;;47.00;15.82;;;12.30;99.90;;;;;;4841569;29;20502;-83
2022/10/25 05:46:43;;;;;;;45.30;14.15;;;12.30;99.90;;;;;;4857607;29;20053;-83
2022/10/25 05:49:09;;;;;;;50.22;16.77;;;12.90;99.90;;;;;;4856099;29;20084;-83
2022/10/25 05:51:35;;;;;;;41.65;16.95;;;12.30;99.90;;;;;;4872216;29;20068;-83
2022/10/25 05:54:04;;;;;;;50.92;15.27;;;12.40;99.90;;;;;;4854317;29;20426;-83
2022/10/25 05:56:31;;;;;;;44.38;16.00;;;12.40;99.90;;;;;;4869370;29;20414;-83
2022/10/25 05:58:56;;;;;;;42.38;14.52;;;12.40;99.90;;;;;;4838866;29;20060;-83
2022/10/25 06:01:24;;;;;;;44.15;14.15;;;12.50;99.90;;;;;;4848151;29;20053;-84
2022/10/25 06:03:51;;;;;;;45.28;14.23;;;12.40;99.90;;;;;;4848648;29;20049;-84
2022/10/25 06:06:18;;;;;;;35.42;12.57;;;12.60;99.90;;;;;;4852051;29;20052;-83
2022/10/25 06:08:44;;;;;;;38.30;13.20;;;12.60;99.90;;;;;;4851314;29;20060;-84
2022/10/25 06:11:17;;;;;;;43.38;14.18;;;12.80;99.90;;;;;;4867245;29;20057;-84
2022/10/25 06:13:43;;;;;;;41.58;12.48;;;12.50;99.90;;;;;;4866577;29;20041;-84
2022/10/25 06:16:12;;;;;;;38.15;12.63;;;12.50;99.90;;;;;;4853717;29;20053;-84
2022/10/25 06:18:37;;;;;;;27.80;10.90;;;12.50;99.90;;;;;;4853437;29;20037;-84
2022/10/25 06:21:05;;;;;;;36.17;12.30;;;12.40;99.90;;;;;;4869923;29;20056;-83
2022/10/25 06:23:31;;;;;;;34.60;11.25;;;12.40;99.90;;;;;;4868588;29;20123;-84
2022/10/25 06:26:00;;;;;;;29.35;11.50;;;12.40;99.90;;;;;;4893131;29;20209;-84
2022/10/25 06:28:25;;;;;;;33.53;10.98;;;12.30;99.90;;;;;;4854512;29;20045;-84
2022/10/25 06:30:51;;;;;;;33.58;11.02;;;12.40;99.90;;;;;;4878604;29;20064;-84
2022/10/25 06:33:17;;;;;;;34.90;10.00;;;12.30;99.90;;;;;;4862330;29;20409;-84
2022/10/25 06:35:42;;;;;;;32.97;10.50;;;12.40;99.90;;;;;;4863425;29;20059;-84
2022/10/25 06:38:08;;;;;;;30.13;9.63;;;12.30;99.90;;;;;;4895106;29;20084;-84
2022/10/25 06:40:34;;;;;;;33.70;10.27;;;12.30;99.90;;;;;;4893713;29;20579;-84
2022/10/25 06:43:00;;;;;;;29.80;9.75;;;12.20;99.90;;;;;;4864556;29;20103;-84
2022/10/25 06:45:25;;;;;;;29.63;9.60;;;12.20;99.90;;;;;;4891305;29;20489;-84
2022/10/25 06:47:51;;;;;;;25.60;9.68;;;12.30;99.90;;;;;;4869526;29;20037;-84
2022/10/25 06:50:17;;;;;;;33.45;9.07;;;12.30;99.90;;;;;;4877286;29;20068;-84
2022/10/25 06:52:42;;;;;;;30.33;9.35;;;12.20;99.90;;;;;;4873526;29;20045;-84
2022/10/25 06:55:08;;;;;;;33.65;9.38;;;12.40;99.90;;;;;;4845639;29;20060;-84
2022/10/25 06:57:34;;;;;;;35.30;9.05;;;12.40;99.90;;;;;;4860599;29;20055;-84
2022/10/25 07:00:00;;;;;;;25.95;9.70;;;12.40;99.90;;;;;;4859282;29;20080;-84
2022/10/25 07:02:26;;;;;;;32.03;8.80;;;12.30;99.90;;;;;;4859881;29;20049;-83
2022/10/25 07:04:51;;;;;;;31.42;8.25;;;12.40;99.90;;;;;;4875373;29;20053;-84
2022/10/25 07:07:17;;;;;;;30.92;7.93;;;12.40;99.90;;;;;;4844270;29;20041;-83
2022/10/25 07:09:43;;;;;;;28.70;7.53;;;12.50;99.90;;;;;;4864750;29;20108;-84
2022/10/25 07:12:08;;;;;;;32.42;8.30;;;12.50;99.90;;;;;;4891563;29;20075;-84
2022/10/25 07:14:34;;;;;;;20.65;8.07;;;12.50;99.90;;;;;;4874902;29;20056;-84
2022/10/25 07:17:00;;;;;;;26.70;9.32;;;12.50;99.90;;;;;;4861611;29;20116;-84
2022/10/25 07:19:25;;;;;;;27.77;8.07;;;12.60;99.90;;;;;;4890162;29;20040;-84
2022/10/25 07:21:51;;;;;;;30.13;8.05;;;12.60;99.90;;;;;;4877954;29;20174;-85
2022/10/25 07:24:17;;;;;;;39.05;7.35;;;12.40;99.90;;;;;;4877811;29;20049;-85
2022/10/25 07:26:43;;;;;;;31.05;8.88;;;12.50;99.90;;;;;;4877627;29;20044;-85
2022/10/25 07:29:08;;;;;;;26.50;7.03;;;12.50;99.90;;;;;;4877674;29;20087;-84
2022/10/25 07:31:39;;;;;;;29.02;8.00;;;12.60;99.90;;;;;;4878201;29;20080;-85
2022/10/25 07:34:05;;;;;;;29.40;7.72;;;12.70;99.90;;;;;;4877755;29;20054;-85
2022/10/25 07:36:31;;;;;;;24.98;6.45;;;12.50;99.90;;;;;;4877509;29;20438;-82
2022/10/25 07:38:57;;;;;;;25.55;6.90;;;12.60;99.90;;;;;;4877995;29;20428;-83
2022/10/25 07:41:24;;;;;;;30.95;6.35;;;12.70;99.90;;;;;;4893741;29;20096;-83
2022/10/25 07:43:49;;;;;;;29.10;7.38;;;12.50;99.90;;;;;;4892718;29;20052;-83
2022/10/25 07:46:15;;;;;;;28.20;7.05;;;12.50;99.90;;;;;;4878393;29;20044;-83
2022/10/25 07:48:41;;;;;;;24.55;6.63;;;12.60;99.90;;;;;;4876133;29;20048;-83
2022/10/25 07:51:11;;;;;;;27.55;9.00;;;12.60;99.90;;;;;;4878406;29;20123;-83
2022/10/25 07:53:37;;;;;;;28.55;8.05;;;12.70;99.90;;;;;;4893243;29;20045;-83
2022/10/25 07:56:02;;;;;;;32.30;7.35;;;12.80;99.90;;;;;;4877025;29;20057;-83
2022/10/25 07:58:28;;;;;;;23.77;6.82;;;12.80;99.90;;;;;;4877454;29;20049;-83
2022/10/25 08:01:02;;;;;;;27.67;6.43;;;12.90;99.90;;;;;;4877403;29;20052;-83
2022/10/25 08:03:28;;;;;;;23.63;6.97;;;12.70;99.90;;;;;;4876361;29;20044;-82
2022/10/25 08:05:54;;;;;;;30.58;7.07;;;12.80;99.90;;;;;;4862649;29;20040;-83
2022/10/25 08:08:22;;;;;;;21.80;6.13;;;12.90;99.90;;;;;;4875628;29;20512;-83
2022/10/25 08:10:48;;;;;;;27.98;7.03;;;13.00;99.90;;;;;;4858618;29;20452;-83
2022/10/25 08:13:14;;;;;;;23.20;6.18;;;13.00;99.90;;;;;;4859324;29;20098;-85
2022/10/25 08:15:39;;;;;;;29.92;6.68;;;13.00;99.90;;;;;;4858876;29;20084;-82
2022/10/25 08:18:06;;;;;;;22.33;6.35;;;13.00;99.90;;;;;;4857916;29;20045;-83
2022/10/25 08:20:32;;;;;;;24.60;6.20;;;13.20;99.90;;;;;;4859159;29;20049;-82
2022/10/25 08:22:59;;;;;;;24.10;5.97;;;13.20;99.90;;;;;;4858962;29;20041;-83
2022/10/25 08:25:27;;;;;;;24.33;6.22;;;13.20;99.90;;;;;;4858589;29;20148;-82
2022/10/25 08:27:53;;;;;;;23.90;6.47;;;13.30;99.90;;;;;;4859159;29;20049;-82
2022/10/25 08:30:19;;;;;;;30.55;7.53;;;13.30;99.90;;;;;;4859303;29;20225;-83
2022/10/25 08:32:45;;;;;;;28.63;6.88;;;13.40;99.90;;;;;;4856846;29;20052;-83
2022/10/25 08:35:10;;;;;;;26.27;7.18;;;13.30;99.90;;;;;;4859154;29;20093;-83
2022/10/25 08:37:36;;;;;;;27.70;6.97;;;13.70;99.90;;;;;;4858068;29;20051;-82
2022/10/25 08:40:02;;;;;;;23.98;6.28;;;13.70;99.90;;;;;;4857831;29;20059;-83
2022/10/25 08:42:48;;;;;;;26.30;6.65;;;13.70;99.90;;;;;;4858435;29;20041;-83
2022/10/25 08:45:22;;;;;;;21.42;5.95;;;13.70;99.90;;;;;;4858030;29;20049;-83
2022/10/25 08:47:52;;;;;;;24.77;7.03;;;13.70;99.90;;;;;;4857445;29;20100;-83
2022/10/25 08:50:23;;;;;;;23.98;6.70;;;13.70;99.90;;;;;;4858220;29;20045;-83
2022/10/25 08:52:53;;;;;;;28.17;6.30;;;13.70;99.90;;;;;;4857683;29;20136;-83
2022/10/25 08:55:28;;;;;;;34.17;7.07;;;13.80;99.90;;;;;;4858410;29;20528;-83
2022/10/25 08:57:54;;;;;;;28.02;6.72;;;13.70;99.90;;;;;;4857801;29;20056;-83
2022/10/25 09:00:22;;;;;;;24.33;7.63;;;14.00;99.90;;;;;;4854691;29;20404;-85
2022/10/25 09:02:54;;;;;;;30.92;7.32;;;13.90;99.90;;;;;;4853998;29;20057;-83
2022/10/25 09:05:44;;;;;;;27.52;7.18;;;14.10;99.90;;;;;;4855266;29;20117;-83
2022/10/25 09:08:34;;;;;;;28.17;7.50;;;14.10;99.90;;;;;;4854537;29;20056;-82
2022/10/25 09:11:18;;;;;;;32.25;7.15;;;14.10;99.90;;;;;;4869926;29;20057;-83
2022/10/25 09:13:53;;;;;;;25.45;7.00;;;14.20;99.90;;;;;;4869040;29;20426;-83
2022/10/25 09:16:26;;;;;;;23.77;6.72;;;14.30;99.90;;;;;;4839593;29;20050;-83
2022/10/25 09:18:54;;;;;;;23.33;6.53;;;14.20;99.90;;;;;;4869712;29;20042;-82
2022/10/25 09:21:37;;;;;;;21.75;7.07;;;14.30;99.90;;;;;;4838888;29;20112;-82
2022/10/25 09:24:17;;;;;;;32.20;7.78;;;14.30;99.90;;;;;;4838964;29;20136;-83
2022/10/25 09:26:54;;;;;;;24.27;6.68;;;14.50;99.90;;;;;;4854151;29;20054;-82
2022/10/25 09:29:34;;;;;;;24.17;6.63;;;14.50;99.90;;;;;;4853981;29;20144;-83
2022/10/25 09:32:04;;;;;;;20.80;6.47;;;14.70;99.90;;;;;;4839156;29;20053;-83
2022/10/25 09:34:32;;;;;;;21.95;6.32;;;14.80;99.90;;;;;;4837832;29;20053;-83
2022/10/25 09:37:10;;;;;;;24.70;6.75;;;14.80;99.90;;;;;;4839256;29;20092;-82
2022/10/25 09:39:52;;;;;;;19.75;6.38;;;14.80;99.90;;;;;;4854892;29;20459;-83
2022/10/25 09:42:25;;;;;;;23.95;6.00;;;14.80;99.90;;;;;;4838883;29;20050;-83
2022/10/25 09:44:55;;;;;;;;;;;14.80;99.90;;;;;;4855028;29;20398;-82
2022/10/25 09:47:39;;;;;;;23.05;5.80;;;14.70;99.90;;;;;;4838755;29;19996;-82
2022/10/25 09:50:24;;;;;;;20.35;5.05;;;14.80;99.90;;;;;;4840214;29;20057;-83
2022/10/25 09:53:11;;;;;;;17.00;5.03;;;14.90;99.90;;;;;;4842253;29;20088;-82
2022/10/25 09:55:53;;;;;;;21.75;5.40;;;15.00;99.90;;;;;;4857438;29;20058;-83
2022/10/25 09:58:23;;;;;;;24.33;4.97;;;15.10;99.90;;;;;;4842377;29;20048;-83
2022/10/25 10:00:51;;;;;;;25.58;5.00;;;15.40;99.90;;;;;;4842733;29;20061;-83
2022/10/25 10:03:18;;;;;;;21.23;5.03;;;15.30;99.90;;;;;;4840956;29;20045;-82
2022/10/25 10:05:55;;;;;;;22.05;4.10;;;15.30;99.90;;;;;;4857917;29;20049;-82
2022/10/25 10:08:22;;;;;;;18.60;4.57;;;15.40;99.90;;;;;;4842377;29;20049;-82
2022/10/25 10:10:49;;;;;;;17.92;4.18;;;15.40;99.90;;;;;;4826249;29;20136;-83
2022/10/25 10:13:24;;;;;;;17.33;4.55;;;15.40;99.90;;;;;;4857769;29;20046;-83
2022/10/25 10:16:01;;;;;;;18.67;4.10;;;15.40;99.90;;;;;;4842237;29;20115;-82
2022/10/25 10:18:29;;;;;;;22.25;3.60;;;15.50;99.90;;;;;;4840292;29;20050;-82
2022/10/25 10:21:02;;;;;;;21.30;3.65;;;15.60;99.90;;;;;;4857327;29;20054;-82
2022/10/25 10:23:31;;;;;;;21.20;3.72;;;15.60;99.90;;;;;;4841095;29;20056;-83
2022/10/25 10:26:01;;;;;;;17.48;3.85;;;15.70;99.90;;;;;;4857412;29;20129;-83
2022/10/25 10:28:27;;;;;;;13.75;3.42;;;15.70;99.90;;;;;;4841708;29;20049;-83
2022/10/25 10:30:56;;;;;;;15.23;3.10;;;15.80;99.90;;;;;;4856337;29;20056;-83
2022/10/25 10:33:22;;;;;;;17.38;3.40;;;15.80;99.90;;;;;;4840894;29;20153;-82
2022/10/25 10:35:53;;;;;;;20.42;2.83;;;15.80;99.90;;;;;;4826608;29;20056;-82
2022/10/25 10:38:25;;;;;;;25.15;3.17;;;15.90;99.90;;;;;;4841724;29;20453;-83
2022/10/25 10:40:54;;;;;;;12.57;2.20;;;15.90;99.90;;;;;;4857269;29;20665;-82
2022/10/25 10:43:29;;;;;;;13.80;2.17;;;15.90;99.90;;;;;;4856612;29;20037;-82
2022/10/25 10:46:01;;;;;;;18.30;2.70;;;15.90;99.90;;;;;;4856135;29;20057;-83
2022/10/25 10:48:33;;;;;;;19.23;2.53;;;15.90;99.90;;;;;;4856752;29;20410;-83
2022/10/25 10:50:59;;;;;;;15.27;2.30;;;15.90;99.90;;;;;;4856440;29;20053;-84
2022/10/25 10:53:31;;;;;;;8.15;1.75;;;16.00;99.90;;;;;;4856220;29;20046;-83
2022/10/25 10:56:01;;;;;;;18.53;2.40;;;16.10;99.90;;;;;;4840944;29;20057;-83
2022/10/25 10:58:31;;;;;;;20.05;2.97;;;16.10;99.90;;;;;;4840661;29;20052;-83
2022/10/25 11:01:08;;;;;;;14.38;2.05;;;16.00;99.90;;;;;;4856378;29;20064;-83
2022/10/25 11:03:41;;;;;;;17.17;2.10;;;16.00;99.90;;;;;;4855642;29;20046;-82
2022/10/25 11:06:06;;;;;;;16.27;2.28;;;16.00;99.90;;;;;;4856276;29;20490;-82
2022/10/25 11:08:32;;;;;;;17.50;2.30;;;16.10;99.90;;;;;;4856420;29;20052;-82
2022/10/25 11:11:20;;;;;;;12.15;1.70;;;16.10;99.90;;;;;;4841341;29;20465;-83
2022/10/25 11:13:55;;;;;;;14.75;2.38;;;16.10;99.90;;;;;;4855875;29;20057;-82
2022/10/25 11:16:42;;;;;;;12.85;2.03;;;16.20;99.90;;;;;;4856914;29;20041;-82
2022/10/25 11:19:25;;;;;;;14.68;1.80;;;16.30;99.90;;;;;;4855782;29;20052;-83
2022/10/25 11:21:59;;;;;;;10.13;1.80;;;16.20;99.90;;;;;;4825272;29;20057;-83
2022/10/25 11:24:45;;;;;;;16.63;2.30;;;16.10;99.90;;;;;;4825793;29;20074;-82
2022/10/25 11:27:23;;;;;;;8.18;1.52;;;16.10;99.90;;;;;;4856160;29;20045;-82
2022/10/25 11:30:01;;;;;;;13.02;2.05;;;16.00;99.90;;;;;;4825821;29;20085;-83
2022/10/25 11:32:39;;;;;;;14.07;1.83;;;16.00;99.90;;;;;;4839867;29;20140;-83
2022/10/25 11:35:35;;;;;;;13.02;1.80;;;16.10;99.90;;;;;;4840336;29;20102;-83
2022/10/25 11:38:18;;;;;;;11.75;1.80;;;16.20;99.90;;;;;;4840683;29;20085;-83
2022/10/25 11:41:03;;;;;;;9.40;1.80;;;16.20;99.90;;;;;;4855468;29;20057;-82
2022/10/25 11:43:56;;;;;;;11.80;1.98;;;16.20;99.90;;;;;;4825837;29;20407;-82
2022/10/25 11:46:38;;;;;;;11.70;1.48;;;16.20;99.90;;;;;;4840687;29;20388;-83
2022/10/25 11:49:24;;;;;;;15.57;2.63;;;16.10;99.90;;;;;;4839106;29;20109;-83
2022/10/25 11:51:52;;;;;;;13.70;1.85;;;16.10;99.90;;;;;;4855775;29;20045;-83
2022/10/25 11:54:38;;;;;;;14.60;1.70;;;16.20;99.90;;;;;;4825428;29;20498;-83
2022/10/25 11:57:09;;;;;;;9.13;2.10;;;16.30;99.90;;;;;;4870698;29;20471;-82
2022/10/25 11:59:43;;;;;;;14.85;2.58;;;16.20;99.90;;;;;;4855761;29;20101;-83
2022/10/25 12:02:37;;;;;;;14.30;2.22;;;16.10;99.90;;;;;;4835796;29;20156;-82
2022/10/25 12:05:16;;;;;;;9.73;1.58;;;16.10;99.90;;;;;;4855464;29;20057;-82
2022/10/25 12:08:13;;;;;;;9.63;1.92;;;16.10;99.90;;;;;;4855558;29;20418;-83
2022/10/25 12:10:42;;;;;;;8.60;1.95;;;16.10;99.90;;;;;;4824086;29;20123;-82
2022/10/25 12:13:18;;;;;;;9.95;2.13;;;16.20;99.90;;;;;;4839703;29;20056;-83
2022/10/25 12:15:48;;;;;;;12.07;2.22;;;16.20;99.90;;;;;;4855627;29;20132;-83
2022/10/25 12:18:20;;;;;;;14.85;2.28;;;16.20;99.90;;;;;;4839131;29;20046;-82
2022/10/25 12:20:48;;;;;;;11.77;1.73;;;16.20;99.90;;;;;;4840365;29;20041;-83
2022/10/25 12:23:17;;;;;;;9.98;1.63;;;16.20;99.90;;;;;;4838932;29;20057;-82
2022/10/25 12:25:47;;;;;;;8.35;1.80;;;16.40;99.90;;;;;;4855664;29;20081;-82
2022/10/25 12:28:31;;;;;;;9.95;1.85;;;16.50;99.90;;;;;;4839635;29;20209;-82
2022/10/25 12:31:04;;;;;;;16.05;2.08;;;16.50;99.90;;;;;;4838787;29;20046;-82
2022/10/25 12:33:35;;;;;;;10.65;1.88;;;16.60;99.90;;;;;;4824030;29;20037;-83
2022/10/25 12:36:05;;;;;;;10.25;1.83;;;16.60;99.90;;;;;;4855194;29;20140;-83
2022/10/25 12:38:36;;;;;;;10.43;1.98;;;16.70;99.90;;;;;;4838686;29;20042;-83
2022/10/25 12:41:08;;;;;;;10.63;1.90;;;16.70;99.90;;;;;;4839826;29;20072;-82
2022/10/25 12:43:42;;;;;;;10.25;1.23;;;16.70;99.90;;;;;;4854981;29;20053;-83
2022/10/25 12:46:23;;;;;;;10.77;1.83;;;16.70;99.90;;;;;;4839010;29;20128;-83